sensor_id;sensor_type;location;lat;lon;timestamp;P1;durP1;ratioP1;P2;durP2;ratioP2
41293;SDS011;27037;52.010;4.446;2022-12-11T00:01:43;67.32;;;37.03;;
41293;SDS011;27037;52.010;4.446;2022-12-11T00:04:09;71.38;;;36.97;;
41293;SDS011;27037;52.010;4.446;2022-12-11T00:06:35;76.05;;;38.58;;
41293;SDS011;27037;52.010;4.446;2022-12-11T00:09:00;73.30;;;37.10;;
41293;SDS011;27037;52.010;4.446;2022-12-11T00:11:26;71.05;;;36.78;;
41293;SDS011;27037;52.010;4.446;2022-12-11T00:13:52;76.40;;;37.55;;
41293;SDS011;27037;52.010;4.446;2022-12-11T00:16:18;73.05;;;37.85;;
41293;SDS011;27037;52.010;4.446;2022-12-11T00:18:44;75.43;;;38.33;;
41293;SDS011;27037;52.010;4.446;2022-12-11T00:21:11;64.18;;;35.65;;
41293;SDS011;27037;52.010;4.446;2022-12-11T00:23:38;68.50;;;36.15;;
41293;SDS011;27037;52.010;4.446;2022-12-11T00:26:05;69.75;;;34.95;;
41293;SDS011;27037;52.010;4.446;2022-12-11T00:28:36;68.72;;;35.83;;
41293;SDS011;27037;52.010;4.446;2022-12-11T00:31:10;70.90;;;36.75;;
41293;SDS011;27037;52.010;4.446;2022-12-11T00:33:40;69.30;;;35.92;;
41293;SDS011;27037;52.010;4.446;2022-12-11T00:36:12;67.72;;;36.15;;
41293;SDS011;27037;52.010;4.446;2022-12-11T00:38:44;66.85;;;34.85;;
41293;SDS011;27037;52.010;4.446;2022-12-11T00:41:11;65.50;;;34.45;;
41293;SDS011;27037;52.010;4.446;2022-12-11T00:43:37;63.58;;;34.25;;
41293;SDS011;27037;52.010;4.446;2022-12-11T00:46:03;65.28;;;34.30;;
41293;SDS011;27037;52.010;4.446;2022-12-11T00:48:28;62.70;;;34.15;;
41293;SDS011;27037;52.010;4.446;2022-12-11T00:50:54;58.22;;;33.35;;
41293;SDS011;27037;52.010;4.446;2022-12-11T00:53:20;58.40;;;30.63;;
41293;SDS011;27037;52.010;4.446;2022-12-11T00:55:46;55.00;;;30.52;;
41293;SDS011;27037;52.010;4.446;2022-12-11T00:58:12;55.83;;;29.55;;
41293;SDS011;27037;52.010;4.446;2022-12-11T01:00:39;56.78;;;29.17;;
41293;SDS011;27037;52.010;4.446;2022-12-11T01:03:05;55.60;;;28.88;;
41293;SDS011;27037;52.010;4.446;2022-12-11T01:05:31;53.95;;;29.88;;
41293;SDS011;27037;52.010;4.446;2022-12-11T01:07:58;54.40;;;29.63;;
41293;SDS011;27037;52.010;4.446;2022-12-11T01:10:24;55.60;;;28.80;;
41293;SDS011;27037;52.010;4.446;2022-12-11T01:13:05;54.08;;;29.10;;
41293;SDS011;27037;52.010;4.446;2022-12-11T01:15:32;52.45;;;27.13;;
41293;SDS011;27037;52.010;4.446;2022-12-11T01:18:05;52.08;;;28.42;;
41293;SDS011;27037;52.010;4.446;2022-12-11T01:20:31;52.00;;;28.13;;
41293;SDS011;27037;52.010;4.446;2022-12-11T01:22:57;54.13;;;27.50;;
41293;SDS011;27037;52.010;4.446;2022-12-11T01:25:25;50.38;;;27.55;;
41293;SDS011;27037;52.010;4.446;2022-12-11T01:27:52;55.50;;;28.30;;
41293;SDS011;27037;52.010;4.446;2022-12-11T01:30:20;53.80;;;27.17;;
41293;SDS011;27037;52.010;4.446;2022-12-11T01:32:47;52.33;;;27.05;;
41293;SDS011;27037;52.010;4.446;2022-12-11T01:35:13;56.47;;;28.00;;
41293;SDS011;27037;52.010;4.446;2022-12-11T01:37:39;51.55;;;27.80;;
41293;SDS011;27037;52.010;4.446;2022-12-11T01:40:06;53.92;;;28.33;;
41293;SDS011;27037;52.010;4.446;2022-12-11T01:42:32;54.33;;;26.85;;
41293;SDS011;27037;52.010;4.446;2022-12-11T01:47:48;52.33;;;27.33;;
41293;SDS011;27037;52.010;4.446;2022-12-11T01:50:16;53.85;;;28.15;;
41293;SDS011;27037;52.010;4.446;2022-12-11T01:52:42;54.60;;;28.00;;
41293;SDS011;27037;52.010;4.446;2022-12-11T01:55:10;55.58;;;27.40;;
41293;SDS011;27037;52.010;4.446;2022-12-11T01:57:37;57.53;;;29.75;;
41293;SDS011;27037;52.010;4.446;2022-12-11T02:00:06;55.88;;;28.15;;
41293;SDS011;27037;52.010;4.446;2022-12-11T02:02:33;62.38;;;30.67;;
41293;SDS011;27037;52.010;4.446;2022-12-11T02:05:00;58.13;;;29.48;;
41293;SDS011;27037;52.010;4.446;2022-12-11T02:07:29;61.17;;;30.33;;
41293;SDS011;27037;52.010;4.446;2022-12-11T02:10:01;71.20;;;32.95;;
41293;SDS011;27037;52.010;4.446;2022-12-11T02:12:33;62.17;;;30.38;;
41293;SDS011;27037;52.010;4.446;2022-12-11T02:15:11;59.15;;;29.98;;
41293;SDS011;27037;52.010;4.446;2022-12-11T02:21:08;62.70;;;30.98;;
41293;SDS011;27037;52.010;4.446;2022-12-11T02:23:46;63.60;;;30.17;;
41293;SDS011;27037;52.010;4.446;2022-12-11T02:29:38;63.63;;;29.88;;
41293;SDS011;27037;52.010;4.446;2022-12-11T02:32:22;65.30;;;30.45;;
41293;SDS011;27037;52.010;4.446;2022-12-11T02:37:47;60.35;;;30.05;;
41293;SDS011;27037;52.010;4.446;2022-12-11T02:40:20;63.30;;;29.83;;
41293;SDS011;27037;52.010;4.446;2022-12-11T02:42:48;60.95;;;30.17;;
41293;SDS011;27037;52.010;4.446;2022-12-11T02:45:16;65.53;;;31.17;;
41293;SDS011;27037;52.010;4.446;2022-12-11T02:47:43;63.63;;;31.23;;
41293;SDS011;27037;52.010;4.446;2022-12-11T02:50:13;63.20;;;30.65;;
41293;SDS011;27037;52.010;4.446;2022-12-11T02:52:41;63.65;;;30.80;;
41293;SDS011;27037;52.010;4.446;2022-12-11T02:55:09;68.55;;;31.92;;
41293;SDS011;27037;52.010;4.446;2022-12-11T03:00:12;50.73;;;24.40;;
41293;SDS011;27037;52.010;4.446;2022-12-11T03:02:38;66.78;;;30.65;;
41293;SDS011;27037;52.010;4.446;2022-12-11T03:05:05;66.15;;;31.75;;
41293;SDS011;27037;52.010;4.446;2022-12-11T03:07:33;66.10;;;30.25;;
41293;SDS011;27037;52.010;4.446;2022-12-11T03:10:01;66.57;;;29.75;;
41293;SDS011;27037;52.010;4.446;2022-12-11T03:12:29;60.25;;;27.98;;
41293;SDS011;27037;52.010;4.446;2022-12-11T03:14:58;60.83;;;29.02;;
41293;SDS011;27037;52.010;4.446;2022-12-11T03:17:29;60.00;;;28.52;;
41293;SDS011;27037;52.010;4.446;2022-12-11T03:23:17;60.63;;;29.00;;
41293;SDS011;27037;52.010;4.446;2022-12-11T03:26:04;69.50;;;30.17;;
41293;SDS011;27037;52.010;4.446;2022-12-11T03:31:00;67.43;;;30.08;;
41293;SDS011;27037;52.010;4.446;2022-12-11T03:33:31;66.95;;;29.60;;
41293;SDS011;27037;52.010;4.446;2022-12-11T03:36:05;66.68;;;30.30;;
41293;SDS011;27037;52.010;4.446;2022-12-11T03:41:48;60.95;;;28.23;;
41293;SDS011;27037;52.010;4.446;2022-12-11T03:44:16;64.32;;;29.38;;
41293;SDS011;27037;52.010;4.446;2022-12-11T03:46:44;61.97;;;28.08;;
41293;SDS011;27037;52.010;4.446;2022-12-11T03:49:15;57.53;;;27.90;;
41293;SDS011;27037;52.010;4.446;2022-12-11T03:51:43;58.08;;;27.85;;
41293;SDS011;27037;52.010;4.446;2022-12-11T03:54:12;61.80;;;28.17;;
41293;SDS011;27037;52.010;4.446;2022-12-11T03:56:39;60.65;;;26.95;;
41293;SDS011;27037;52.010;4.446;2022-12-11T03:59:06;55.47;;;26.70;;
41293;SDS011;27037;52.010;4.446;2022-12-11T04:01:32;54.50;;;26.42;;
41293;SDS011;27037;52.010;4.446;2022-12-11T04:03:58;51.30;;;24.88;;
41293;SDS011;27037;52.010;4.446;2022-12-11T04:06:24;54.90;;;25.38;;
41293;SDS011;27037;52.010;4.446;2022-12-11T04:08:50;51.65;;;25.05;;
41293;SDS011;27037;52.010;4.446;2022-12-11T04:11:16;51.00;;;24.20;;
41293;SDS011;27037;52.010;4.446;2022-12-11T04:14:01;47.42;;;23.48;;
41293;SDS011;27037;52.010;4.446;2022-12-11T04:16:46;46.65;;;23.38;;
41293;SDS011;27037;52.010;4.446;2022-12-11T04:19:13;49.03;;;23.67;;
41293;SDS011;27037;52.010;4.446;2022-12-11T04:24:38;51.38;;;22.70;;
41293;SDS011;27037;52.010;4.446;2022-12-11T04:27:04;48.20;;;23.77;;
41293;SDS011;27037;52.010;4.446;2022-12-11T04:29:30;51.95;;;24.73;;
41293;SDS011;27037;52.010;4.446;2022-12-11T04:31:56;48.97;;;23.98;;
41293;SDS011;27037;52.010;4.446;2022-12-11T04:34:22;50.42;;;24.42;;
41293;SDS011;27037;52.010;4.446;2022-12-11T04:36:48;47.97;;;24.17;;
41293;SDS011;27037;52.010;4.446;2022-12-11T04:39:14;46.72;;;23.60;;
41293;SDS011;27037;52.010;4.446;2022-12-11T04:41:40;51.72;;;24.02;;
41293;SDS011;27037;52.010;4.446;2022-12-11T04:44:06;43.55;;;22.42;;
41293;SDS011;27037;52.010;4.446;2022-12-11T04:46:32;48.00;;;22.80;;
41293;SDS011;27037;52.010;4.446;2022-12-11T04:48:58;47.25;;;21.85;;
41293;SDS011;27037;52.010;4.446;2022-12-11T04:51:25;41.42;;;20.92;;
41293;SDS011;27037;52.010;4.446;2022-12-11T04:53:52;41.17;;;21.35;;
41293;SDS011;27037;52.010;4.446;2022-12-11T04:56:18;41.20;;;19.90;;
41293;SDS011;27037;52.010;4.446;2022-12-11T04:58:45;40.35;;;19.42;;
41293;SDS011;27037;52.010;4.446;2022-12-11T05:01:14;40.30;;;20.00;;
41293;SDS011;27037;52.010;4.446;2022-12-11T05:03:42;39.78;;;19.05;;
41293;SDS011;27037;52.010;4.446;2022-12-11T05:06:08;38.15;;;18.80;;
41293;SDS011;27037;52.010;4.446;2022-12-11T05:08:36;40.60;;;18.83;;
41293;SDS011;27037;52.010;4.446;2022-12-11T05:11:04;34.97;;;17.73;;
41293;SDS011;27037;52.010;4.446;2022-12-11T05:13:32;35.97;;;18.10;;
41293;SDS011;27037;52.010;4.446;2022-12-11T05:15:58;35.10;;;17.70;;
41293;SDS011;27037;52.010;4.446;2022-12-11T05:18:24;38.10;;;18.25;;
41293;SDS011;27037;52.010;4.446;2022-12-11T05:20:54;38.10;;;18.65;;
41293;SDS011;27037;52.010;4.446;2022-12-11T05:23:20;37.83;;;18.85;;
41293;SDS011;27037;52.010;4.446;2022-12-11T05:25:56;32.63;;;17.77;;
41293;SDS011;27037;52.010;4.446;2022-12-11T05:28:24;32.72;;;17.50;;
41293;SDS011;27037;52.010;4.446;2022-12-11T05:30:54;36.72;;;17.92;;
41293;SDS011;27037;52.010;4.446;2022-12-11T05:33:21;32.90;;;17.25;;
41293;SDS011;27037;52.010;4.446;2022-12-11T05:35:47;37.28;;;18.92;;
41293;SDS011;27037;52.010;4.446;2022-12-11T05:38:12;35.75;;;17.80;;
41293;SDS011;27037;52.010;4.446;2022-12-11T05:40:38;36.00;;;17.60;;
41293;SDS011;27037;52.010;4.446;2022-12-11T05:43:04;35.70;;;17.70;;
41293;SDS011;27037;52.010;4.446;2022-12-11T05:45:30;33.70;;;16.90;;
41293;SDS011;27037;52.010;4.446;2022-12-11T05:47:56;32.90;;;16.90;;
41293;SDS011;27037;52.010;4.446;2022-12-11T05:50:21;37.92;;;17.90;;
41293;SDS011;27037;52.010;4.446;2022-12-11T05:52:47;36.05;;;17.35;;
41293;SDS011;27037;52.010;4.446;2022-12-11T05:55:13;36.63;;;17.77;;
41293;SDS011;27037;52.010;4.446;2022-12-11T05:57:38;38.38;;;18.45;;
41293;SDS011;27037;52.010;4.446;2022-12-11T06:00:04;36.10;;;18.50;;
41293;SDS011;27037;52.010;4.446;2022-12-11T06:02:33;36.10;;;18.08;;
41293;SDS011;27037;52.010;4.446;2022-12-11T06:04:59;38.75;;;18.48;;
41293;SDS011;27037;52.010;4.446;2022-12-11T06:07:25;39.60;;;19.23;;
41293;SDS011;27037;52.010;4.446;2022-12-11T06:09:50;39.58;;;19.73;;
41293;SDS011;27037;52.010;4.446;2022-12-11T06:12:16;38.97;;;19.77;;
41293;SDS011;27037;52.010;4.446;2022-12-11T06:14:42;40.53;;;19.55;;
41293;SDS011;27037;52.010;4.446;2022-12-11T06:17:07;41.20;;;19.88;;
41293;SDS011;27037;52.010;4.446;2022-12-11T06:19:33;44.70;;;20.80;;
41293;SDS011;27037;52.010;4.446;2022-12-11T06:21:59;41.10;;;19.17;;
41293;SDS011;27037;52.010;4.446;2022-12-11T06:24:24;44.40;;;20.13;;
41293;SDS011;27037;52.010;4.446;2022-12-11T06:26:50;41.70;;;19.55;;
41293;SDS011;27037;52.010;4.446;2022-12-11T06:29:16;44.50;;;21.13;;
41293;SDS011;27037;52.010;4.446;2022-12-11T06:31:42;43.53;;;20.42;;
41293;SDS011;27037;52.010;4.446;2022-12-11T06:34:07;49.83;;;21.45;;
41293;SDS011;27037;52.010;4.446;2022-12-11T06:36:36;48.13;;;21.80;;
41293;SDS011;27037;52.010;4.446;2022-12-11T06:39:02;49.25;;;22.42;;
41293;SDS011;27037;52.010;4.446;2022-12-11T06:41:28;50.05;;;23.13;;
41293;SDS011;27037;52.010;4.446;2022-12-11T06:43:54;45.17;;;21.67;;
41293;SDS011;27037;52.010;4.446;2022-12-11T06:46:19;48.50;;;21.33;;
41293;SDS011;27037;52.010;4.446;2022-12-11T06:48:46;48.30;;;22.95;;
41293;SDS011;27037;52.010;4.446;2022-12-11T06:51:13;47.75;;;21.08;;
41293;SDS011;27037;52.010;4.446;2022-12-11T06:53:40;46.28;;;21.23;;
41293;SDS011;27037;52.010;4.446;2022-12-11T06:56:08;45.08;;;21.42;;
41293;SDS011;27037;52.010;4.446;2022-12-11T06:58:35;49.45;;;21.67;;
41293;SDS011;27037;52.010;4.446;2022-12-11T07:01:02;48.10;;;22.70;;
41293;SDS011;27037;52.010;4.446;2022-12-11T07:03:29;49.30;;;22.60;;
41293;SDS011;27037;52.010;4.446;2022-12-11T07:05:59;49.65;;;21.60;;
41293;SDS011;27037;52.010;4.446;2022-12-11T07:08:26;50.60;;;21.83;;
41293;SDS011;27037;52.010;4.446;2022-12-11T07:10:53;53.08;;;22.42;;
41293;SDS011;27037;52.010;4.446;2022-12-11T07:13:18;47.65;;;22.20;;
41293;SDS011;27037;52.010;4.446;2022-12-11T07:15:44;48.22;;;21.38;;
41293;SDS011;27037;52.010;4.446;2022-12-11T07:18:10;47.33;;;20.63;;
41293;SDS011;27037;52.010;4.446;2022-12-11T07:20:36;45.53;;;21.00;;
41293;SDS011;27037;52.010;4.446;2022-12-11T07:23:01;46.20;;;21.27;;
41293;SDS011;27037;52.010;4.446;2022-12-11T07:25:27;47.17;;;20.38;;
41293;SDS011;27037;52.010;4.446;2022-12-11T07:27:53;45.85;;;20.90;;
41293;SDS011;27037;52.010;4.446;2022-12-11T07:30:19;44.78;;;20.92;;
41293;SDS011;27037;52.010;4.446;2022-12-11T07:32:44;47.40;;;20.52;;
41293;SDS011;27037;52.010;4.446;2022-12-11T07:35:10;48.22;;;21.92;;
41293;SDS011;27037;52.010;4.446;2022-12-11T07:37:38;45.00;;;20.88;;
41293;SDS011;27037;52.010;4.446;2022-12-11T07:40:05;39.28;;;19.33;;
41293;SDS011;27037;52.010;4.446;2022-12-11T07:42:31;42.97;;;20.75;;
41293;SDS011;27037;52.010;4.446;2022-12-11T07:44:57;46.45;;;20.33;;
41293;SDS011;27037;52.010;4.446;2022-12-11T07:47:23;46.33;;;20.65;;
41293;SDS011;27037;52.010;4.446;2022-12-11T07:49:49;48.65;;;20.40;;
41293;SDS011;27037;52.010;4.446;2022-12-11T07:52:14;42.75;;;20.60;;
41293;SDS011;27037;52.010;4.446;2022-12-11T07:54:40;42.22;;;20.48;;
41293;SDS011;27037;52.010;4.446;2022-12-11T07:57:06;45.92;;;21.13;;
41293;SDS011;27037;52.010;4.446;2022-12-11T07:59:32;43.53;;;20.27;;
41293;SDS011;27037;52.010;4.446;2022-12-11T08:01:57;42.33;;;19.92;;
41293;SDS011;27037;52.010;4.446;2022-12-11T08:04:23;43.22;;;20.42;;
41293;SDS011;27037;52.010;4.446;2022-12-11T08:06:49;42.33;;;19.95;;
41293;SDS011;27037;52.010;4.446;2022-12-11T08:09:14;42.03;;;20.90;;
41293;SDS011;27037;52.010;4.446;2022-12-11T08:11:40;40.80;;;19.73;;
41293;SDS011;27037;52.010;4.446;2022-12-11T08:14:06;38.42;;;18.75;;
41293;SDS011;27037;52.010;4.446;2022-12-11T08:16:32;37.75;;;18.73;;
41293;SDS011;27037;52.010;4.446;2022-12-11T08:18:58;39.03;;;19.35;;
41293;SDS011;27037;52.010;4.446;2022-12-11T08:21:25;36.65;;;18.42;;
41293;SDS011;27037;52.010;4.446;2022-12-11T08:23:52;39.60;;;18.98;;
41293;SDS011;27037;52.010;4.446;2022-12-11T08:26:20;39.72;;;18.95;;
41293;SDS011;27037;52.010;4.446;2022-12-11T08:28:48;37.85;;;19.70;;
41293;SDS011;27037;52.010;4.446;2022-12-11T08:31:14;37.13;;;19.27;;
41293;SDS011;27037;52.010;4.446;2022-12-11T08:33:41;39.20;;;18.50;;
41293;SDS011;27037;52.010;4.446;2022-12-11T08:36:08;35.90;;;18.75;;
41293;SDS011;27037;52.010;4.446;2022-12-11T08:38:35;37.10;;;19.25;;
41293;SDS011;27037;52.010;4.446;2022-12-11T08:43:38;40.17;;;19.58;;
41293;SDS011;27037;52.010;4.446;2022-12-11T08:46:04;42.00;;;20.27;;
41293;SDS011;27037;52.010;4.446;2022-12-11T08:48:31;41.40;;;19.48;;
41293;SDS011;27037;52.010;4.446;2022-12-11T08:51:01;41.35;;;19.60;;
41293;SDS011;27037;52.010;4.446;2022-12-11T08:53:30;41.83;;;19.00;;
41293;SDS011;27037;52.010;4.446;2022-12-11T08:56:03;36.92;;;18.55;;
41293;SDS011;27037;52.010;4.446;2022-12-11T08:58:30;35.95;;;18.40;;
41293;SDS011;27037;52.010;4.446;2022-12-11T09:00:56;39.97;;;19.45;;
41293;SDS011;27037;52.010;4.446;2022-12-11T09:03:22;41.40;;;20.73;;
41293;SDS011;27037;52.010;4.446;2022-12-11T09:05:49;44.83;;;21.27;;
41293;SDS011;27037;52.010;4.446;2022-12-11T09:08:15;47.65;;;22.23;;
41293;SDS011;27037;52.010;4.446;2022-12-11T09:10:41;50.40;;;23.00;;
41293;SDS011;27037;52.010;4.446;2022-12-11T09:13:06;50.28;;;24.23;;
41293;SDS011;27037;52.010;4.446;2022-12-11T09:15:32;48.55;;;22.55;;
41293;SDS011;27037;52.010;4.446;2022-12-11T09:17:58;51.53;;;23.02;;
41293;SDS011;27037;52.010;4.446;2022-12-11T09:20:24;52.50;;;23.55;;
41293;SDS011;27037;52.010;4.446;2022-12-11T09:22:49;49.03;;;22.60;;
41293;SDS011;27037;52.010;4.446;2022-12-11T09:25:15;49.90;;;22.92;;
41293;SDS011;27037;52.010;4.446;2022-12-11T09:27:41;50.75;;;23.45;;
41293;SDS011;27037;52.010;4.446;2022-12-11T09:30:07;48.47;;;23.23;;
41293;SDS011;27037;52.010;4.446;2022-12-11T09:32:33;50.35;;;23.15;;
41293;SDS011;27037;52.010;4.446;2022-12-11T09:34:58;51.05;;;23.73;;
41293;SDS011;27037;52.010;4.446;2022-12-11T09:37:24;54.42;;;25.02;;
41293;SDS011;27037;52.010;4.446;2022-12-11T09:39:50;55.25;;;24.05;;
41293;SDS011;27037;52.010;4.446;2022-12-11T09:42:24;55.17;;;25.13;;
41293;SDS011;27037;52.010;4.446;2022-12-11T09:44:56;57.33;;;25.75;;
41293;SDS011;27037;52.010;4.446;2022-12-11T09:47:30;53.25;;;24.05;;
41293;SDS011;27037;52.010;4.446;2022-12-11T09:50:12;55.83;;;24.88;;
41293;SDS011;27037;52.010;4.446;2022-12-11T09:55:50;56.83;;;25.48;;
41293;SDS011;27037;52.010;4.446;2022-12-11T09:58:21;49.80;;;24.08;;
41293;SDS011;27037;52.010;4.446;2022-12-11T10:01:09;53.42;;;24.05;;
41293;SDS011;27037;52.010;4.446;2022-12-11T10:03:50;57.85;;;26.67;;
41293;SDS011;27037;52.010;4.446;2022-12-11T10:06:23;56.67;;;25.15;;
41293;SDS011;27037;52.010;4.446;2022-12-11T10:14:38;59.05;;;26.13;;
41293;SDS011;27037;52.010;4.446;2022-12-11T10:19:38;55.50;;;26.60;;
41293;SDS011;27037;52.010;4.446;2022-12-11T10:22:07;57.38;;;26.73;;
41293;SDS011;27037;52.010;4.446;2022-12-11T10:24:52;59.35;;;27.63;;
41293;SDS011;27037;52.010;4.446;2022-12-11T10:27:31;60.95;;;26.50;;
41293;SDS011;27037;52.010;4.446;2022-12-11T10:30:01;57.28;;;27.50;;
41293;SDS011;27037;52.010;4.446;2022-12-11T10:32:51;54.70;;;26.35;;
41293;SDS011;27037;52.010;4.446;2022-12-11T10:38:38;54.92;;;26.33;;
41293;SDS011;27037;52.010;4.446;2022-12-11T10:41:13;60.72;;;26.92;;
41293;SDS011;27037;52.010;4.446;2022-12-11T10:43:43;58.90;;;26.58;;
41293;SDS011;27037;52.010;4.446;2022-12-11T10:46:19;57.40;;;26.55;;
41293;SDS011;27037;52.010;4.446;2022-12-11T10:48:53;53.70;;;26.13;;
41293;SDS011;27037;52.010;4.446;2022-12-11T10:53:56;55.10;;;25.60;;
41293;SDS011;27037;52.010;4.446;2022-12-11T10:58:57;53.53;;;25.67;;
41293;SDS011;27037;52.010;4.446;2022-12-11T11:01:25;53.63;;;25.60;;
41293;SDS011;27037;52.010;4.446;2022-12-11T11:04:04;51.25;;;24.27;;
41293;SDS011;27037;52.010;4.446;2022-12-11T11:06:37;53.83;;;24.17;;
41293;SDS011;27037;52.010;4.446;2022-12-11T11:09:21;50.17;;;24.05;;
41293;SDS011;27037;52.010;4.446;2022-12-11T11:11:54;51.70;;;24.15;;
41293;SDS011;27037;52.010;4.446;2022-12-11T11:14:20;55.63;;;25.35;;
41293;SDS011;27037;52.010;4.446;2022-12-11T11:16:49;50.05;;;24.63;;
41293;SDS011;27037;52.010;4.446;2022-12-11T11:21:51;54.70;;;25.58;;
41293;SDS011;27037;52.010;4.446;2022-12-11T11:27:00;52.85;;;25.63;;
41293;SDS011;27037;52.010;4.446;2022-12-11T11:29:30;58.30;;;27.60;;
41293;SDS011;27037;52.010;4.446;2022-12-11T11:32:11;58.95;;;27.42;;
41293;SDS011;27037;52.010;4.446;2022-12-11T11:34:44;57.85;;;26.65;;
41293;SDS011;27037;52.010;4.446;2022-12-11T11:37:23;57.33;;;26.92;;
41293;SDS011;27037;52.010;4.446;2022-12-11T11:39:56;55.15;;;24.75;;
41293;SDS011;27037;52.010;4.446;2022-12-11T11:42:48;55.45;;;25.90;;
41293;SDS011;27037;52.010;4.446;2022-12-11T11:45:35;54.03;;;25.25;;
41293;SDS011;27037;52.010;4.446;2022-12-11T11:50:52;54.22;;;25.17;;
41293;SDS011;27037;52.010;4.446;2022-12-11T11:53:24;55.25;;;26.23;;
41293;SDS011;27037;52.010;4.446;2022-12-11T11:56:04;59.15;;;27.27;;
41293;SDS011;27037;52.010;4.446;2022-12-11T11:58:44;56.72;;;26.90;;
41293;SDS011;27037;52.010;4.446;2022-12-11T12:01:33;54.67;;;25.27;;
41293;SDS011;27037;52.010;4.446;2022-12-11T12:03:59;57.38;;;25.67;;
41293;SDS011;27037;52.010;4.446;2022-12-11T12:09:16;56.83;;;25.23;;
41293;SDS011;27037;52.010;4.446;2022-12-11T12:14:36;57.45;;;24.38;;
41293;SDS011;27037;52.010;4.446;2022-12-11T12:25:24;52.80;;;24.63;;
41293;SDS011;27037;52.010;4.446;2022-12-11T12:28:16;57.65;;;25.48;;
41293;SDS011;27037;52.010;4.446;2022-12-11T12:41:37;55.67;;;24.40;;
41293;SDS011;27037;52.010;4.446;2022-12-11T12:44:15;45.08;;;22.30;;
41293;SDS011;27037;52.010;4.446;2022-12-11T12:51:58;50.30;;;24.35;;
41293;SDS011;27037;52.010;4.446;2022-12-11T12:54:25;48.58;;;23.50;;
41293;SDS011;27037;52.010;4.446;2022-12-11T12:56:53;53.45;;;25.42;;
41293;SDS011;27037;52.010;4.446;2022-12-11T12:59:24;55.10;;;25.10;;
41293;SDS011;27037;52.010;4.446;2022-12-11T13:01:53;52.22;;;25.70;;
41293;SDS011;27037;52.010;4.446;2022-12-11T13:06:58;56.80;;;26.17;;
41293;SDS011;27037;52.010;4.446;2022-12-11T13:09:36;51.75;;;25.25;;
41293;SDS011;27037;52.010;4.446;2022-12-11T13:12:10;52.80;;;24.70;;
41293;SDS011;27037;52.010;4.446;2022-12-11T13:14:38;50.50;;;24.20;;
41293;SDS011;27037;52.010;4.446;2022-12-11T13:17:06;53.30;;;25.50;;
41293;SDS011;27037;52.010;4.446;2022-12-11T13:19:44;49.00;;;23.70;;
41293;SDS011;27037;52.010;4.446;2022-12-11T13:24:46;50.05;;;23.60;;
41293;SDS011;27037;52.010;4.446;2022-12-11T13:27:26;51.45;;;24.23;;
41293;SDS011;27037;52.010;4.446;2022-12-11T13:30:22;46.17;;;22.92;;
41293;SDS011;27037;52.010;4.446;2022-12-11T13:33:06;48.00;;;23.52;;
41293;SDS011;27037;52.010;4.446;2022-12-11T13:35:41;47.60;;;23.08;;
41293;SDS011;27037;52.010;4.446;2022-12-11T13:38:17;49.70;;;23.13;;
41293;SDS011;27037;52.010;4.446;2022-12-11T13:40:45;47.50;;;21.90;;
41293;SDS011;27037;52.010;4.446;2022-12-11T13:43:17;45.70;;;22.55;;
41293;SDS011;27037;52.010;4.446;2022-12-11T13:45:49;49.42;;;22.50;;
41293;SDS011;27037;52.010;4.446;2022-12-11T13:48:20;39.85;;;20.13;;
41293;SDS011;27037;52.010;4.446;2022-12-11T13:51:03;44.55;;;20.52;;
41293;SDS011;27037;52.010;4.446;2022-12-11T13:53:30;44.90;;;20.55;;
41293;SDS011;27037;52.010;4.446;2022-12-11T13:56:01;44.83;;;20.73;;
41293;SDS011;27037;52.010;4.446;2022-12-11T13:58:37;45.40;;;20.70;;
41293;SDS011;27037;52.010;4.446;2022-12-11T14:03:50;52.13;;;22.85;;
41293;SDS011;27037;52.010;4.446;2022-12-11T14:06:33;51.08;;;23.08;;
41293;SDS011;27037;52.010;4.446;2022-12-11T14:09:00;54.97;;;23.77;;
41293;SDS011;27037;52.010;4.446;2022-12-11T14:11:37;55.35;;;24.90;;
41293;SDS011;27037;52.010;4.446;2022-12-11T14:14:07;54.67;;;24.77;;
41293;SDS011;27037;52.010;4.446;2022-12-11T14:16:46;55.00;;;24.33;;
41293;SDS011;27037;52.010;4.446;2022-12-11T14:19:14;57.03;;;25.65;;
41293;SDS011;27037;52.010;4.446;2022-12-11T14:21:53;51.88;;;25.08;;
41293;SDS011;27037;52.010;4.446;2022-12-11T14:24:20;56.28;;;25.95;;
41293;SDS011;27037;52.010;4.446;2022-12-11T14:26:49;54.95;;;25.83;;
41293;SDS011;27037;52.010;4.446;2022-12-11T14:29:27;59.22;;;26.13;;
41293;SDS011;27037;52.010;4.446;2022-12-11T14:32:03;56.20;;;25.38;;
41293;SDS011;27037;52.010;4.446;2022-12-11T14:34:36;48.85;;;23.30;;
41293;SDS011;27037;52.010;4.446;2022-12-11T14:37:08;51.30;;;23.92;;
41293;SDS011;27037;52.010;4.446;2022-12-11T14:39:43;48.30;;;22.33;;
41293;SDS011;27037;52.010;4.446;2022-12-11T14:42:18;49.40;;;22.45;;
41293;SDS011;27037;52.010;4.446;2022-12-11T14:47:15;48.85;;;23.88;;
41293;SDS011;27037;52.010;4.446;2022-12-11T14:49:50;49.77;;;23.00;;
41293;SDS011;27037;52.010;4.446;2022-12-11T14:52:19;47.55;;;21.85;;
41293;SDS011;27037;52.010;4.446;2022-12-11T14:57:43;44.90;;;21.33;;
41293;SDS011;27037;52.010;4.446;2022-12-11T15:00:22;50.35;;;21.77;;
41293;SDS011;27037;52.010;4.446;2022-12-11T15:03:00;43.72;;;20.58;;
41293;SDS011;27037;52.010;4.446;2022-12-11T15:05:28;43.45;;;20.42;;
41293;SDS011;27037;52.010;4.446;2022-12-11T15:11:16;41.95;;;19.88;;
41293;SDS011;27037;52.010;4.446;2022-12-11T15:13:29;45.22;;;22.08;;
41293;SDS011;27037;52.010;4.446;2022-12-11T15:15:55;53.47;;;24.05;;
41293;SDS011;27037;52.010;4.446;2022-12-11T15:18:23;66.80;;;30.58;;
41293;SDS011;27037;52.010;4.446;2022-12-11T15:21:01;44.80;;;21.25;;
41293;SDS011;27037;52.010;4.446;2022-12-11T15:23:31;46.72;;;22.38;;
41293;SDS011;27037;52.010;4.446;2022-12-11T15:25:59;50.65;;;23.92;;
41293;SDS011;27037;52.010;4.446;2022-12-11T15:28:31;59.35;;;26.20;;
41293;SDS011;27037;52.010;4.446;2022-12-11T15:31:00;61.53;;;27.40;;
41293;SDS011;27037;52.010;4.446;2022-12-11T15:33:28;55.85;;;27.98;;
41293;SDS011;27037;52.010;4.446;2022-12-11T15:36:04;55.63;;;27.15;;
41293;SDS011;27037;52.010;4.446;2022-12-11T15:38:32;56.58;;;26.88;;
41293;SDS011;27037;52.010;4.446;2022-12-11T15:40:58;57.92;;;27.15;;
41293;SDS011;27037;52.010;4.446;2022-12-11T15:43:25;59.13;;;27.42;;
41293;SDS011;27037;52.010;4.446;2022-12-11T15:45:52;62.88;;;28.58;;
41293;SDS011;27037;52.010;4.446;2022-12-11T15:48:18;60.67;;;27.98;;
41293;SDS011;27037;52.010;4.446;2022-12-11T15:50:43;56.38;;;26.33;;
41293;SDS011;27037;52.010;4.446;2022-12-11T15:53:09;62.42;;;29.13;;
41293;SDS011;27037;52.010;4.446;2022-12-11T15:55:35;56.92;;;26.90;;
41293;SDS011;27037;52.010;4.446;2022-12-11T15:58:06;54.92;;;25.83;;
41293;SDS011;27037;52.010;4.446;2022-12-11T16:00:37;53.97;;;26.40;;
41293;SDS011;27037;52.010;4.446;2022-12-11T16:03:03;52.72;;;25.67;;
41293;SDS011;27037;52.010;4.446;2022-12-11T16:05:29;54.78;;;25.80;;
41293;SDS011;27037;52.010;4.446;2022-12-11T16:07:54;54.35;;;25.55;;
41293;SDS011;27037;52.010;4.446;2022-12-11T16:10:23;50.88;;;23.80;;
41293;SDS011;27037;52.010;4.446;2022-12-11T16:12:49;48.80;;;22.83;;
41293;SDS011;27037;52.010;4.446;2022-12-11T16:15:15;44.67;;;21.83;;
41293;SDS011;27037;52.010;4.446;2022-12-11T16:17:41;47.15;;;21.55;;